createdAt,value
2019-04-07T00:00:09.853Z,1007.01
2019-04-07T00:01:14.573Z,1007.03
2019-04-07T00:02:18.549Z,1007.02
2019-04-07T00:03:23.044Z,1007.00
2019-04-07T00:04:27.179Z,1007.00
2019-04-07T00:05:31.221Z,1007.00
2019-04-07T00:06:35.459Z,1007.00
2019-04-07T00:07:40.191Z,1006.99
2019-04-07T00:08:44.468Z,1007.01
2019-04-07T00:09:48.176Z,1007.02
2019-04-07T00:10:52.831Z,1007.04
2019-04-07T00:11:56.649Z,1007.06
2019-04-07T00:13:00.979Z,1007.05
2019-04-07T00:14:05.641Z,1007.08
2019-04-07T00:15:09.517Z,1007.08
2019-04-07T00:16:13.877Z,1007.07
2019-04-07T00:17:18.119Z,1007.08
2019-04-07T00:18:22.504Z,1007.07
2019-04-07T00:19:27.181Z,1007.08
2019-04-07T00:20:30.917Z,1007.08
2019-04-07T00:21:35.303Z,1007.08
2019-04-07T00:22:39.362Z,1007.06
2019-04-07T00:23:44.126Z,1007.05
2019-04-07T00:24:47.980Z,1007.05
2019-04-07T00:25:52.251Z,1007.06
2019-04-07T00:26:56.504Z,1007.05
2019-04-07T00:28:00.890Z,1007.06
2019-04-07T00:29:05.112Z,1007.06
2019-04-07T00:30:09.356Z,1007.06
2019-04-07T00:31:13.599Z,1007.07
2019-04-07T00:32:17.744Z,1007.08
2019-04-07T00:33:22.078Z,1007.07
2019-04-07T00:34:26.216Z,1007.07
2019-04-07T00:35:32.631Z,1007.10
2019-04-07T00:36:35.076Z,1007.08
2019-04-07T00:37:39.115Z,1007.09
2019-04-07T00:38:43.787Z,1007.08
2019-04-07T00:39:47.709Z,1007.08
2019-04-07T00:40:52.494Z,1007.09
2019-04-07T00:41:56.577Z,1007.11
2019-04-07T00:43:00.832Z,1007.13
2019-04-07T00:44:05.046Z,1007.14
2019-04-07T00:45:09.758Z,1007.15
2019-04-07T00:46:13.630Z,1007.18
2019-04-07T00:47:17.524Z,1007.19
2019-04-07T00:48:22.156Z,1007.18
2019-04-07T00:49:26.080Z,1007.18
2019-04-07T00:50:30.533Z,1007.18
2019-04-07T00:51:34.533Z,1007.19
2019-04-07T00:52:39.145Z,1007.17
2019-04-07T00:53:43.070Z,1007.20
2019-04-07T00:54:47.861Z,1007.21
2019-04-07T00:55:51.555Z,1007.21
2019-04-07T00:56:55.805Z,1007.20
2019-04-07T00:58:00.433Z,1007.18
2019-04-07T00:59:04.447Z,1007.17
2019-04-07T01:00:08.574Z,1007.17
2019-04-07T01:01:12.716Z,1007.16
2019-04-07T01:02:17.108Z,1007.17
2019-04-07T01:03:21.211Z,1007.16
2019-04-07T01:04:25.556Z,1007.18
2019-04-07T01:05:36.220Z,1007.17
2019-04-07T01:06:34.097Z,1007.15
2019-04-07T01:07:38.892Z,1007.16
2019-04-07T01:08:42.492Z,1007.14
2019-04-07T01:09:46.714Z,1007.14
2019-04-07T01:10:50.999Z,1007.16
2019-04-07T01:11:55.127Z,1007.14
2019-04-07T01:13:00.067Z,1007.13
2019-04-07T01:14:03.800Z,1007.18
2019-04-07T01:15:07.907Z,1007.18
2019-04-07T01:16:12.217Z,1007.19
2019-04-07T01:17:16.479Z,1007.19
2019-04-07T01:18:20.764Z,1007.19
2019-04-07T01:19:25.322Z,1007.20
2019-04-07T01:20:29.588Z,1007.20
2019-04-07T01:21:33.536Z,1007.19
2019-04-07T01:22:37.749Z,1007.18
2019-04-07T01:23:42.463Z,1007.20
2019-04-07T01:24:46.141Z,1007.21
2019-04-07T01:25:50.948Z,1007.21
2019-04-07T01:26:54.727Z,1007.20
2019-04-07T01:27:59.325Z,1007.20
2019-04-07T01:29:03.283Z,1007.18
2019-04-07T01:30:07.485Z,1007.17
2019-04-07T01:31:12.207Z,1007.17
2019-04-07T01:32:16.016Z,1007.16
2019-04-07T01:33:20.742Z,1007.16
2019-04-07T01:34:25.008Z,1007.16
2019-04-07T01:35:28.960Z,1007.17
2019-04-07T01:36:33.775Z,1007.14
2019-04-07T01:37:37.521Z,1007.17
2019-04-07T01:38:42.198Z,1007.15
2019-04-07T01:39:46.001Z,1007.16
2019-04-07T01:40:50.752Z,1007.17
2019-04-07T01:41:54.345Z,1007.17
2019-04-07T01:42:58.853Z,1007.15
2019-04-07T01:44:03.528Z,1007.14
2019-04-07T01:45:07.287Z,1007.15
2019-04-07T01:46:11.221Z,1007.15
2019-04-07T01:47:15.695Z,1007.17
2019-04-07T01:48:20.369Z,1007.15
2019-04-07T01:49:24.756Z,1007.17
2019-04-07T01:50:28.591Z,1007.16
2019-04-07T01:51:33.335Z,1007.14
2019-04-07T01:52:37.005Z,1007.14
2019-04-07T01:53:41.953Z,1007.14
2019-04-07T01:54:45.648Z,1007.15
2019-04-07T01:55:49.925Z,1007.17
2019-04-07T01:56:54.092Z,1007.15
2019-04-07T01:57:58.340Z,1007.17
2019-04-07T01:59:02.616Z,1007.19
2019-04-07T02:00:07.247Z,1007.18
2019-04-07T02:01:10.933Z,1007.19
2019-04-07T02:02:15.889Z,1007.20
2019-04-07T02:03:19.588Z,1007.21
2019-04-07T02:04:23.811Z,1007.21
2019-04-07T02:05:28.739Z,1007.20
2019-04-07T02:06:32.378Z,1007.20
2019-04-07T02:07:37.449Z,1007.19
2019-04-07T02:08:41.678Z,1007.20
2019-04-07T02:09:45.262Z,1007.18
2019-04-07T02:10:49.603Z,1007.20
2019-04-07T02:11:53.976Z,1007.22
2019-04-07T02:12:57.937Z,1007.21
2019-04-07T02:14:02.208Z,1007.19
2019-04-07T02:15:06.439Z,1007.19
2019-04-07T02:16:10.512Z,1007.19
2019-04-07T02:17:14.876Z,1007.19
2019-04-07T02:18:19.014Z,1007.21
2019-04-07T02:19:24.103Z,1007.20
2019-04-07T02:20:27.941Z,1007.18
2019-04-07T02:21:31.865Z,1007.18
2019-04-07T02:22:36.601Z,1007.17
2019-04-07T02:23:40.550Z,1007.15
2019-04-07T02:24:45.328Z,1007.16
2019-04-07T02:25:48.830Z,1007.15
2019-04-07T02:26:53.218Z,1007.17
2019-04-07T02:27:57.404Z,1007.17
2019-04-07T02:29:01.673Z,1007.18
2019-04-07T02:30:06.077Z,1007.18
2019-04-07T02:31:10.077Z,1007.20
2019-04-07T02:32:15.272Z,1007.19
2019-04-07T02:33:18.686Z,1007.17
2019-04-07T02:34:22.923Z,1007.16
2019-04-07T02:35:28.186Z,1007.17
2019-04-07T02:36:32.044Z,1007.16
2019-04-07T02:37:35.772Z,1007.18
2019-04-07T02:38:40.039Z,1007.18
2019-04-07T02:39:44.294Z,1007.18
2019-04-07T02:40:48.782Z,1007.19
2019-04-07T02:41:53.650Z,1007.19
2019-04-07T02:42:57.532Z,1007.19
2019-04-07T02:44:01.610Z,1007.18
2019-04-07T02:45:05.761Z,1007.20
2019-04-07T02:46:10.928Z,1007.20
2019-04-07T02:47:14.785Z,1007.20
2019-04-07T02:48:18.312Z,1007.19
2019-04-07T02:49:22.733Z,1007.19
2019-04-07T02:50:26.940Z,1007.21
2019-04-07T02:51:31.940Z,1007.21
2019-04-07T02:52:35.752Z,1007.20
2019-04-07T02:53:39.659Z,1007.23
2019-04-07T02:54:44.475Z,1007.24
2019-04-07T02:55:48.415Z,1007.24
2019-04-07T02:56:52.541Z,1007.27
2019-04-07T02:57:56.708Z,1007.27
2019-04-07T02:59:01.335Z,1007.30
2019-04-07T03:00:05.158Z,1007.31
2019-04-07T03:01:09.669Z,1007.32
2019-04-07T03:02:14.283Z,1007.35
2019-04-07T03:03:18.821Z,1007.34
2019-04-07T03:04:23.082Z,1007.33
2019-04-07T03:05:26.733Z,1007.34
2019-04-07T03:06:42.419Z,1007.33
2019-04-07T03:07:35.692Z,1007.36
2019-04-07T03:08:39.641Z,1007.34
2019-04-07T03:09:44.006Z,1007.34
2019-04-07T03:10:47.566Z,1007.34
2019-04-07T03:11:52.456Z,1007.35
2019-04-07T03:12:59.013Z,1007.35
2019-04-07T03:14:02.143Z,1007.35
2019-04-07T03:15:06.983Z,1007.33
2019-04-07T03:16:10.698Z,1007.36
2019-04-07T03:17:15.837Z,1007.33
2019-04-07T03:18:20.141Z,1007.33
2019-04-07T03:19:23.607Z,1007.31
2019-04-07T03:20:28.089Z,1007.32
2019-04-07T03:21:32.963Z,1007.31
2019-04-07T03:22:36.759Z,1007.32
2019-04-07T03:23:41.429Z,1007.32
2019-04-07T03:24:44.625Z,1007.32
2019-04-07T03:25:48.919Z,1007.30
2019-04-07T03:26:53.559Z,1007.31
2019-04-07T03:27:57.450Z,1007.31
2019-04-07T03:29:01.587Z,1007.31
2019-04-07T03:30:06.397Z,1007.35
2019-04-07T03:31:10.697Z,1007.33
2019-04-07T03:32:18.317Z,1007.36
2019-04-07T03:33:22.208Z,1007.36
2019-04-07T03:34:25.343Z,1007.37
2019-04-07T03:35:30.081Z,1007.35
2019-04-07T03:36:41.087Z,1007.33
2019-04-07T03:37:43.027Z,1007.34
2019-04-07T03:38:41.097Z,1007.34
2019-04-07T03:39:44.236Z,1007.36
2019-04-07T03:40:49.620Z,1007.37
2019-04-07T03:41:53.710Z,1007.37
2019-04-07T03:42:57.368Z,1007.36
2019-04-07T03:44:01.403Z,1007.38
2019-04-07T03:45:06.123Z,1007.39
2019-04-07T03:46:09.626Z,1007.39
2019-04-07T03:47:14.356Z,1007.38
2019-04-07T03:48:18.125Z,1007.40
2019-04-07T03:49:23.341Z,1007.41
2019-04-07T03:50:27.403Z,1007.46
2019-04-07T03:51:31.907Z,1007.43
2019-04-07T03:52:35.643Z,1007.43
2019-04-07T03:53:39.716Z,1007.45
2019-04-07T03:54:44.025Z,1007.47
2019-04-07T03:55:48.049Z,1007.47
2019-04-07T03:56:53.002Z,1007.49
2019-04-07T03:57:56.964Z,1007.47
2019-04-07T03:59:01.031Z,1007.47
2019-04-07T04:00:05.884Z,1007.46
2019-04-07T04:01:10.189Z,1007.47
2019-04-07T04:02:14.215Z,1007.47
2019-04-07T04:03:17.933Z,1007.48
2019-04-07T04:04:22.487Z,1007.48
2019-04-07T04:05:27.361Z,1007.47
2019-04-07T04:06:30.723Z,1007.47
2019-04-07T04:07:37.092Z,1007.46
2019-04-07T04:08:39.104Z,1007.48
2019-04-07T04:09:44.085Z,1007.47
2019-04-07T04:10:48.481Z,1007.47
2019-04-07T04:11:52.021Z,1007.44
2019-04-07T04:12:56.574Z,1007.45
2019-04-07T04:14:01.332Z,1007.47
2019-04-07T04:15:04.760Z,1007.46
2019-04-07T04:16:08.937Z,1007.43
2019-04-07T04:17:13.111Z,1007.42
2019-04-07T04:18:18.304Z,1007.42
2019-04-07T04:19:21.460Z,1007.42
2019-04-07T04:20:25.880Z,1007.42
2019-04-07T04:21:30.902Z,1007.43
2019-04-07T04:22:34.341Z,1007.44
2019-04-07T04:23:41.644Z,1007.44
2019-04-07T04:24:43.671Z,1007.45
2019-04-07T04:25:47.097Z,1007.45
2019-04-07T04:26:51.941Z,1007.43
2019-04-07T04:27:55.443Z,1007.44
2019-04-07T04:28:59.933Z,1007.42
2019-04-07T04:30:04.922Z,1007.43
2019-04-07T04:31:08.115Z,1007.43
2019-04-07T04:32:13.432Z,1007.42
2019-04-07T04:33:16.692Z,1007.45
2019-04-07T04:34:20.985Z,1007.46
2019-04-07T04:35:25.216Z,1007.45
2019-04-07T04:36:29.503Z,1007.44
2019-04-07T04:37:41.935Z,1007.48
2019-04-07T04:38:38.545Z,1007.49
2019-04-07T04:39:42.298Z,1007.48
2019-04-07T04:40:46.577Z,1007.49
2019-04-07T04:41:51.168Z,1007.49
2019-04-07T04:42:55.252Z,1007.52
2019-04-07T04:44:00.407Z,1007.53
2019-04-07T04:45:06.654Z,1007.53
2019-04-07T04:46:11.345Z,1007.52
2019-04-07T04:47:14.026Z,1007.53
2019-04-07T04:48:19.550Z,1007.54
2019-04-07T04:49:23.286Z,1007.57
2019-04-07T04:50:27.542Z,1007.55
2019-04-07T04:51:35.089Z,1007.57
2019-04-07T04:52:36.272Z,1007.59
2019-04-07T04:53:39.770Z,1007.59
2019-04-07T04:54:44.034Z,1007.61
2019-04-07T04:55:48.335Z,1007.59
2019-04-07T04:56:53.456Z,1007.60
2019-04-07T04:57:57.768Z,1007.60
2019-04-07T04:59:01.075Z,1007.59
2019-04-07T05:00:05.418Z,1007.60
2019-04-07T05:01:09.731Z,1007.60
2019-04-07T05:02:13.750Z,1007.61
2019-04-07T05:03:18.263Z,1007.61
2019-04-07T05:04:22.973Z,1007.64
2019-04-07T05:05:26.630Z,1007.64
2019-04-07T05:06:31.199Z,1007.63
2019-04-07T05:07:47.914Z,1007.62
2019-04-07T05:08:39.476Z,1007.63
2019-04-07T05:09:48.788Z,1007.64
2019-04-07T05:10:48.255Z,1007.64
2019-04-07T05:11:52.815Z,1007.62
2019-04-07T05:12:57.189Z,1007.62
2019-04-07T05:14:00.893Z,1007.61
2019-04-07T05:15:05.131Z,1007.65
2019-04-07T05:16:09.088Z,1007.63
2019-04-07T05:17:13.442Z,1007.66
2019-04-07T05:18:17.588Z,1007.66
2019-04-07T05:19:22.362Z,1007.66
2019-04-07T05:20:26.795Z,1007.65
2019-04-07T05:21:30.407Z,1007.66
2019-04-07T05:22:34.140Z,1007.67
2019-04-07T05:23:38.533Z,1007.69
2019-04-07T05:24:42.716Z,1007.71
2019-04-07T05:25:46.888Z,1007.71
2019-04-07T05:26:51.129Z,1007.68
2019-04-07T05:27:55.865Z,1007.67
2019-04-07T05:28:59.495Z,1007.68
2019-04-07T05:30:04.317Z,1007.70
2019-04-07T05:31:08.846Z,1007.71
2019-04-07T05:32:12.321Z,1007.72
2019-04-07T05:33:16.669Z,1007.73
2019-04-07T05:34:22.241Z,1007.73
2019-04-07T05:35:25.135Z,1007.72
2019-04-07T05:36:30.276Z,1007.72
2019-04-07T05:37:34.137Z,1007.71
2019-04-07T05:38:38.723Z,1007.69
2019-04-07T05:39:42.583Z,1007.66
2019-04-07T05:40:47.486Z,1007.69
2019-04-07T05:41:51.088Z,1007.64
2019-04-07T05:42:55.537Z,1007.66
2019-04-07T05:43:59.760Z,1007.65
2019-04-07T05:45:04.139Z,1007.65
2019-04-07T05:46:09.074Z,1007.64
2019-04-07T05:47:14.405Z,1007.64
2019-04-07T05:48:19.458Z,1007.67
2019-04-07T05:49:23.246Z,1007.68
2019-04-07T05:50:27.456Z,1007.65
2019-04-07T05:51:31.281Z,1007.65
2019-04-07T05:52:38.584Z,1007.67
2019-04-07T05:53:38.860Z,1007.68
2019-04-07T05:54:42.913Z,1007.69
2019-04-07T05:55:47.550Z,1007.68
2019-04-07T05:56:51.505Z,1007.70
2019-04-07T05:57:55.552Z,1007.68
2019-04-07T05:59:00.564Z,1007.70
2019-04-07T06:00:04.391Z,1007.70
2019-04-07T06:01:08.541Z,1007.69
2019-04-07T06:02:13.218Z,1007.70
2019-04-07T06:03:17.684Z,1007.71
2019-04-07T06:04:21.701Z,1007.72
2019-04-07T06:05:25.672Z,1007.71
2019-04-07T06:06:30.054Z,1007.71
2019-04-07T06:07:35.958Z,1007.73
2019-04-07T06:08:40.040Z,1007.76
2019-04-07T06:09:42.876Z,1007.75
2019-04-07T06:10:47.239Z,1007.76
2019-04-07T06:11:52.218Z,1007.77
2019-04-07T06:12:56.532Z,1007.77
2019-04-07T06:14:00.815Z,1007.75
2019-04-07T06:15:05.243Z,1007.80
2019-04-07T06:16:09.545Z,1007.80
2019-04-07T06:17:13.168Z,1007.81
2019-04-07T06:18:17.455Z,1007.81
2019-04-07T06:19:21.815Z,1007.82
2019-04-07T06:20:26.052Z,1007.82
2019-04-07T06:21:31.183Z,1007.83
2019-04-07T06:22:34.982Z,1007.83
2019-04-07T06:23:39.543Z,1007.82
2019-04-07T06:24:43.801Z,1007.84
2019-04-07T06:25:47.707Z,1007.81
2019-04-07T06:26:52.122Z,1007.82
2019-04-07T06:27:56.856Z,1007.80
2019-04-07T06:29:01.464Z,1007.82
2019-04-07T06:30:05.083Z,1007.83
2019-04-07T06:31:09.441Z,1007.83
2019-04-07T06:32:14.368Z,1007.84
2019-04-07T06:33:18.036Z,1007.84
2019-04-07T06:34:22.657Z,1007.83
2019-04-07T06:35:26.990Z,1007.84
2019-04-07T06:36:31.016Z,1007.82
2019-04-07T06:37:35.296Z,1007.79
2019-04-07T06:38:43.631Z,1007.83
2019-04-07T06:39:44.081Z,1007.80
2019-04-07T06:40:50.848Z,1007.77
2019-04-07T06:41:52.493Z,1007.80
2019-04-07T06:42:56.839Z,1007.81
2019-04-07T06:44:18.425Z,1007.82
2019-04-07T06:45:20.698Z,1007.81
2019-04-07T06:46:22.627Z,1007.81
2019-04-07T06:47:25.169Z,1007.81
2019-04-07T06:48:30.543Z,1007.81
2019-04-07T06:49:33.822Z,1007.80
2019-04-07T06:50:47.414Z,1007.78
2019-04-07T06:51:42.473Z,1007.79
2019-04-07T06:52:46.697Z,1007.81
2019-04-07T06:53:51.448Z,1007.78
2019-04-07T06:54:56.280Z,1007.79
2019-04-07T06:56:02.245Z,1007.80
2019-04-07T06:57:06.053Z,1007.83
2019-04-07T06:58:08.470Z,1007.83
2019-04-07T06:59:15.426Z,1007.81
2019-04-07T07:00:17.431Z,1007.80
2019-04-07T07:01:24.528Z,1007.80
2019-04-07T07:02:27.003Z,1007.81
2019-04-07T07:03:33.544Z,1007.80
2019-04-07T07:04:34.083Z,1007.80
2019-04-07T07:05:38.785Z,1007.79
2019-04-07T07:06:46.089Z,1007.78
2019-04-07T07:07:48.224Z,1007.79
2019-04-07T07:08:54.086Z,1007.81
2019-04-07T07:09:59.679Z,1007.81
2019-04-07T07:10:59.730Z,1007.82
2019-04-07T07:12:04.139Z,1007.81
2019-04-07T07:13:11.771Z,1007.82
2019-04-07T07:14:16.209Z,1007.83
2019-04-07T07:15:16.857Z,1007.85
2019-04-07T07:16:21.821Z,1007.85
2019-04-07T07:17:25.875Z,1007.86
2019-04-07T07:18:30.648Z,1007.87
2019-04-07T07:19:34.674Z,1007.87
2019-04-07T07:20:39.350Z,1007.87
2019-04-07T07:21:43.507Z,1007.88
2019-04-07T07:22:48.701Z,1007.90
2019-04-07T07:23:51.597Z,1007.90
2019-04-07T07:24:59.058Z,1007.88
2019-04-07T07:26:02.835Z,1007.90
2019-04-07T07:27:07.291Z,1007.91
2019-04-07T07:28:11.535Z,1007.94
2019-04-07T07:29:14.756Z,1007.96
2019-04-07T07:30:18.365Z,1007.96
2019-04-07T07:31:24.716Z,1007.96
2019-04-07T07:32:25.960Z,1007.98
2019-04-07T07:33:30.261Z,1007.98
2019-04-07T07:34:34.562Z,1008.00
2019-04-07T07:35:38.913Z,1008.03
2019-04-07T07:36:43.246Z,1008.03
2019-04-07T07:37:48.349Z,1008.05
2019-04-07T07:38:59.060Z,1008.06
2019-04-07T07:39:56.399Z,1008.06
2019-04-07T07:41:02.130Z,1008.06
2019-04-07T07:42:04.744Z,1008.06
2019-04-07T07:43:09.711Z,1008.08
2019-04-07T07:44:13.418Z,1008.05
2019-04-07T07:45:17.568Z,1008.08
2019-04-07T07:46:23.559Z,1008.07
2019-04-07T07:47:26.376Z,1008.08
2019-04-07T07:48:31.401Z,1008.01
2019-04-07T07:49:39.848Z,1008.02
2019-04-07T07:50:40.442Z,1008.03
2019-04-07T07:51:46.355Z,1008.04
2019-04-07T07:52:51.328Z,1008.02
2019-04-07T07:53:52.685Z,1008.04
2019-04-07T07:54:59.788Z,1008.04
2019-04-07T07:56:01.018Z,1008.04
2019-04-07T07:57:05.129Z,1008.04
2019-04-07T07:58:09.574Z,1008.04
2019-04-07T07:59:13.905Z,1008.04
2019-04-07T08:00:18.819Z,1008.03
2019-04-07T08:01:22.611Z,1008.05
2019-04-07T08:02:29.075Z,1008.04
2019-04-07T08:03:31.518Z,1008.02
2019-04-07T08:04:35.690Z,1008.02
2019-04-07T08:05:40.869Z,1008.02
2019-04-07T08:06:44.719Z,1008.01
2019-04-07T08:07:50.188Z,1008.00
2019-04-07T08:08:53.658Z,1007.99
2019-04-07T08:09:58.068Z,1007.98
2019-04-07T08:11:02.717Z,1008.00
2019-04-07T08:12:06.324Z,1007.98
2019-04-07T08:13:10.383Z,1007.98
2019-04-07T08:14:17.944Z,1007.99
2019-04-07T08:15:22.864Z,1008.00
2019-04-07T08:16:23.930Z,1007.99
2019-04-07T08:17:27.811Z,1008.00
2019-04-07T08:18:32.088Z,1007.98
2019-04-07T08:19:40.680Z,1007.99
2019-04-07T08:20:44.921Z,1007.99
2019-04-07T08:21:45.603Z,1008.01
2019-04-07T08:22:50.370Z,1008.00
2019-04-07T08:23:54.576Z,1008.00
2019-04-07T08:24:58.812Z,1008.02
2019-04-07T08:26:02.811Z,1008.04
2019-04-07T08:27:07.349Z,1008.05
2019-04-07T08:28:11.413Z,1008.07
2019-04-07T08:29:15.813Z,1008.07
2019-04-07T08:30:20.188Z,1008.08
2019-04-07T08:31:25.069Z,1008.08
2019-04-07T08:32:31.754Z,1008.09
2019-04-07T08:33:33.277Z,1008.07
2019-04-07T08:34:37.626Z,1008.08
2019-04-07T08:35:42.643Z,1008.08
2019-04-07T08:36:47.262Z,1008.07
2019-04-07T08:37:50.737Z,1008.10
2019-04-07T08:38:56.867Z,1008.12
2019-04-07T08:39:59.492Z,1008.11
2019-04-07T08:41:04.205Z,1008.13
2019-04-07T08:42:11.154Z,1008.12
2019-04-07T08:43:12.617Z,1008.12
2019-04-07T08:44:17.162Z,1008.11
2019-04-07T08:45:21.195Z,1008.10
2019-04-07T08:46:26.416Z,1008.11
2019-04-07T08:47:30.230Z,1008.12
2019-04-07T08:48:34.264Z,1008.10
2019-04-07T08:49:38.655Z,1008.08
2019-04-07T08:50:42.953Z,1008.08
2019-04-07T08:51:47.294Z,1008.08
2019-04-07T08:52:52.209Z,1008.08
2019-04-07T08:53:55.951Z,1008.07
2019-04-07T08:55:00.286Z,1008.04
2019-04-07T08:56:07.399Z,1008.04
2019-04-07T08:57:09.614Z,1008.04
2019-04-07T08:58:24.419Z,1008.05
2019-04-07T08:59:18.322Z,1008.05
2019-04-07T09:00:22.087Z,1008.01
2019-04-07T09:01:28.760Z,1008.01
2019-04-07T09:02:31.268Z,1007.95
2019-04-07T09:03:35.841Z,1007.95
2019-04-07T09:04:39.916Z,1007.96
2019-04-07T09:05:44.467Z,1007.93
2019-04-07T09:06:48.858Z,1007.94
2019-04-07T09:07:52.865Z,1007.92
2019-04-07T09:08:57.384Z,1007.93
2019-04-07T09:10:01.425Z,1007.92
2019-04-07T09:11:05.760Z,1007.91
2019-04-07T09:12:10.388Z,1007.93
2019-04-07T09:13:14.538Z,1007.92
2019-04-07T09:14:18.915Z,1007.94
2019-04-07T09:15:23.487Z,1007.92
2019-04-07T09:16:28.032Z,1007.93
2019-04-07T09:17:38.508Z,1007.90
2019-04-07T09:18:36.725Z,1007.92
2019-04-07T09:19:41.445Z,1007.93
2019-04-07T09:20:48.415Z,1007.92
2019-04-07T09:21:51.754Z,1007.91
2019-04-07T09:22:56.654Z,1007.93
2019-04-07T09:23:58.189Z,1007.94
2019-04-07T09:25:06.315Z,1007.92
2019-04-07T09:26:09.490Z,1007.93
2019-04-07T09:27:14.661Z,1007.94
2019-04-07T09:28:19.930Z,1007.92
2019-04-07T09:29:21.011Z,1007.88
2019-04-07T09:30:24.989Z,1007.84
2019-04-07T09:31:29.294Z,1007.84
2019-04-07T09:32:33.525Z,1007.85
2019-04-07T09:33:38.780Z,1007.83
2019-04-07T09:34:42.303Z,1007.84
2019-04-07T09:35:46.669Z,1007.84
2019-04-07T09:36:51.404Z,1007.84
2019-04-07T09:37:55.976Z,1007.87
2019-04-07T09:39:02.769Z,1007.88
2019-04-07T09:40:05.394Z,1007.87
2019-04-07T09:41:08.619Z,1007.87
2019-04-07T09:42:13.761Z,1007.88
2019-04-07T09:43:18.936Z,1007.87
2019-04-07T09:44:22.030Z,1007.89
2019-04-07T09:45:26.475Z,1007.88
2019-04-07T09:46:31.130Z,1007.89
2019-04-07T09:47:34.890Z,1007.89
2019-04-07T09:48:40.333Z,1007.89
2019-04-07T09:49:48.163Z,1007.89
2019-04-07T09:50:48.198Z,1007.90
2019-04-07T09:51:52.851Z,1007.89
2019-04-07T09:52:56.885Z,1007.89
2019-04-07T09:54:01.306Z,1007.91
2019-04-07T09:55:08.337Z,1007.90
2019-04-07T09:56:11.944Z,1007.89
2019-04-07T09:57:14.471Z,1007.88
2019-04-07T09:58:19.283Z,1007.88
2019-04-07T09:59:23.946Z,1007.89
2019-04-07T10:00:27.846Z,1007.89
2019-04-07T10:01:32.980Z,1007.88
2019-04-07T10:02:37.186Z,1007.87
2019-04-07T10:03:41.001Z,1007.87
2019-04-07T10:04:45.418Z,1007.85
2019-04-07T10:05:49.810Z,1007.85
2019-04-07T10:06:54.221Z,1007.85
2019-04-07T10:07:58.973Z,1007.84
2019-04-07T10:09:03.310Z,1007.85
2019-04-07T10:10:12.278Z,1007.84
2019-04-07T10:11:11.842Z,1007.82
2019-04-07T10:12:16.188Z,1007.81
2019-04-07T10:13:20.596Z,1007.80
2019-04-07T10:14:25.794Z,1007.81
2019-04-07T10:15:29.670Z,1007.80
2019-04-07T10:16:35.137Z,1007.77
2019-04-07T10:17:38.457Z,1007.78
2019-04-07T10:18:42.940Z,1007.77
2019-04-07T10:19:47.790Z,1007.76
2019-04-07T10:20:51.541Z,1007.76
2019-04-07T10:21:56.210Z,1007.74
2019-04-07T10:23:00.673Z,1007.72
2019-04-07T10:24:05.251Z,1007.74
2019-04-07T10:25:09.296Z,1007.72
2019-04-07T10:26:13.480Z,1007.72
2019-04-07T10:27:18.697Z,1007.71
2019-04-07T10:28:22.422Z,1007.71
2019-04-07T10:29:27.551Z,1007.66
2019-04-07T10:30:31.629Z,1007.66
2019-04-07T10:31:35.519Z,1007.66
2019-04-07T10:32:40.635Z,1007.65
2019-04-07T10:33:44.351Z,1007.63
2019-04-07T10:34:48.803Z,1007.63
2019-04-07T10:35:53.205Z,1007.63
2019-04-07T10:36:57.901Z,1007.62
2019-04-07T10:38:02.187Z,1007.64
2019-04-07T10:39:07.226Z,1007.66
2019-04-07T10:40:18.882Z,1007.64
2019-04-07T10:41:15.935Z,1007.63
2019-04-07T10:42:20.143Z,1007.66
2019-04-07T10:43:25.043Z,1007.66
2019-04-07T10:44:29.213Z,1007.65
2019-04-07T10:45:33.085Z,1007.62
2019-04-07T10:46:37.564Z,1007.61
2019-04-07T10:47:41.940Z,1007.63
2019-04-07T10:48:46.746Z,1007.62
2019-04-07T10:49:58.519Z,1007.62
2019-04-07T10:50:55.558Z,1007.64
2019-04-07T10:51:59.453Z,1007.61
2019-04-07T10:53:03.870Z,1007.61
2019-04-07T10:54:08.237Z,1007.61
2019-04-07T10:55:13.048Z,1007.59
2019-04-07T10:56:17.161Z,1007.59
2019-04-07T10:57:22.179Z,1007.57
2019-04-07T10:58:26.544Z,1007.60
2019-04-07T10:59:30.825Z,1007.59
2019-04-07T11:00:34.686Z,1007.60
2019-04-07T11:01:39.775Z,1007.59
2019-04-07T11:02:44.245Z,1007.59
2019-04-07T11:03:48.663Z,1007.57
2019-04-07T11:04:52.821Z,1007.57
2019-04-07T11:05:57.142Z,1007.55
2019-04-07T11:07:01.927Z,1007.54
2019-04-07T11:08:06.068Z,1007.54
2019-04-07T11:09:10.017Z,1007.53
2019-04-07T11:10:14.400Z,1007.53
2019-04-07T11:11:19.057Z,1007.53
2019-04-07T11:12:23.259Z,1007.52
2019-04-07T11:13:27.681Z,1007.51
2019-04-07T11:14:32.059Z,1007.52
2019-04-07T11:15:37.038Z,1007.51
2019-04-07T11:16:40.804Z,1007.50
2019-04-07T11:17:45.274Z,1007.51
2019-04-07T11:18:50.361Z,1007.52
2019-04-07T11:19:54.770Z,1007.53
2019-04-07T11:20:58.382Z,1007.50
2019-04-07T11:22:02.788Z,1007.50
2019-04-07T11:23:07.397Z,1007.52
2019-04-07T11:24:12.301Z,1007.48
2019-04-07T11:25:16.466Z,1007.50
2019-04-07T11:26:20.853Z,1007.53
2019-04-07T11:27:25.478Z,1007.50
2019-04-07T11:28:29.375Z,1007.48
2019-04-07T11:29:35.396Z,1007.50
2019-04-07T11:30:38.708Z,1007.48
2019-04-07T11:31:42.911Z,1007.45
2019-04-07T11:32:47.815Z,1007.50
2019-04-07T11:33:52.423Z,1007.47
2019-04-07T11:34:55.934Z,1007.47
2019-04-07T11:36:00.696Z,1007.43
2019-04-07T11:37:04.974Z,1007.42
2019-04-07T11:38:09.264Z,1007.45
2019-04-07T11:39:13.643Z,1007.45
2019-04-07T11:40:18.245Z,1007.44
2019-04-07T11:41:25.379Z,1007.39
2019-04-07T11:42:26.855Z,1007.40
2019-04-07T11:43:31.506Z,1007.40
2019-04-07T11:44:35.749Z,1007.37
2019-04-07T11:45:52.239Z,1007.35
2019-04-07T11:46:45.004Z,1007.33
2019-04-07T11:47:49.278Z,1007.37
2019-04-07T11:48:53.343Z,1007.37
2019-04-07T11:49:58.196Z,1007.38
2019-04-07T11:51:03.229Z,1007.39
2019-04-07T11:52:07.148Z,1007.39
2019-04-07T11:53:11.148Z,1007.37
2019-04-07T11:54:15.439Z,1007.34
2019-04-07T11:55:19.878Z,1007.34
2019-04-07T11:56:24.904Z,1007.39
2019-04-07T11:57:29.016Z,1007.35
2019-04-07T11:58:34.648Z,1007.33
2019-04-07T11:59:37.807Z,1007.30
2019-04-07T12:00:42.102Z,1007.31
2019-04-07T12:01:49.491Z,1007.29
2019-04-07T12:02:51.843Z,1007.28
2019-04-07T12:03:55.807Z,1007.28
2019-04-07T12:04:59.989Z,1007.27
2019-04-07T12:06:04.079Z,1007.27
2019-04-07T12:07:08.932Z,1007.25
2019-04-07T12:08:12.914Z,1007.24
2019-04-07T12:09:17.592Z,1007.23
2019-04-07T12:10:22.475Z,1007.24
2019-04-07T12:11:26.245Z,1007.24
2019-04-07T12:12:31.100Z,1007.24
2019-04-07T12:13:35.091Z,1007.23
2019-04-07T12:14:39.512Z,1007.25
2019-04-07T12:15:44.100Z,1007.22
2019-04-07T12:16:49.170Z,1007.24
2019-04-07T12:17:53.492Z,1007.22
2019-04-07T12:18:57.859Z,1007.20
2019-04-07T12:20:01.762Z,1007.21
2019-04-07T12:21:07.624Z,1007.22
2019-04-07T12:22:13.173Z,1007.22
2019-04-07T12:23:20.963Z,1007.22
2019-04-07T12:24:24.602Z,1007.21
2019-04-07T12:25:24.150Z,1007.22
2019-04-07T12:26:28.594Z,1007.18
2019-04-07T12:27:33.370Z,1007.18
2019-04-07T12:28:37.655Z,1007.20
2019-04-07T12:29:42.800Z,1007.18
2019-04-07T12:30:46.967Z,1007.18
2019-04-07T12:31:51.061Z,1007.20
2019-04-07T12:32:55.452Z,1007.21
2019-04-07T12:33:59.906Z,1007.22
2019-04-07T12:35:05.213Z,1007.19
2019-04-07T12:36:09.431Z,1007.17
2019-04-07T12:37:13.190Z,1007.16
2019-04-07T12:38:17.718Z,1007.14
2019-04-07T12:39:22.318Z,1007.16
2019-04-07T12:40:26.499Z,1007.14
2019-04-07T12:41:32.015Z,1007.13
2019-04-07T12:42:35.694Z,1007.10
2019-04-07T12:43:40.404Z,1007.10
2019-04-07T12:44:44.226Z,1007.11
2019-04-07T12:45:49.353Z,1007.10
2019-04-07T12:46:53.807Z,1007.09
2019-04-07T12:47:58.332Z,1007.09
2019-04-07T12:49:05.416Z,1007.08
2019-04-07T12:50:06.402Z,1007.09
2019-04-07T12:51:12.225Z,1007.05
2019-04-07T12:52:15.332Z,1007.05
2019-04-07T12:53:19.759Z,1007.06
2019-04-07T12:54:24.136Z,1007.09
2019-04-07T12:55:29.393Z,1007.04
2019-04-07T12:56:34.248Z,1007.04
2019-04-07T12:57:39.576Z,1007.04